Antimony, UT

3:10 AM MST on January 30, 2015 (GMT -0700)
Bryce Canyon | Change Station
CLOSE
Current Station
Airport
Location: Bryce Canyon,
Elevation: 7585 ft
Nearby Weather Stations
Active Advisory: Winter Weather Advisory

Elev 7585 ft 37.71 °N, 112.15 °W | Updated 17 minutes ago

Overcast
Overcast
32 °F
Feels Like 25 °F
N
8
Wind Variable Wind from ENE

Today
High -- | Low -- °F
--% Chance of Precip.
Yesterday
High -- | Low -- °F
Precip. -- in
7:34 AM 5:49 PM
Waxing Gibbous, 81% visible
Pressure 30.03 in
Visibility 3.0 miles
Clouds Scattered Clouds 400 ft
Mostly Cloudy 1500 ft
Overcast 2400 ft
Windchill 25 °F
Dew Point 31 °F
Humidity 96%
Rainfall 0.05 in
Snow Depth Not available.
UV 0 out of 12
Pollen 1.50 out of 12
Air Quality Not available.
Flu Activity Not available.
METAR KBCE 300953Z AUTO 06007KT 3SM -SN BR SCT004 BKN015 OVC024 00/M01 A3017 RMK AO2 SLP169 P0002 T00001006 $

More Conditions Fewer Conditions

Pressure 30.03 in
Visibility 3.0 miles
Clouds Scattered Clouds 400 ft
Mostly Cloudy 1500 ft
Overcast 2400 ft
Windchill 25 °F
Dew Point 31 °F
Humidity 96%
Rainfall 0.05 in
Snow Depth Not available.
UV 0 out of 12
Pollen 1.50 out of 12
Air Quality Not available.
Flu Activity Not available.
METAR KBCE 300953Z AUTO 06007KT 3SM -SN BR SCT004 BKN015 OVC024 00/M01 A3017 RMK AO2 SLP169 P0002 T00001006 $

More Conditions Fewer Conditions

10-Day Weather Forecast

Almanac

Astronomy

Jan. 30, 2015 Rise Set
Actual Time
Civil Twilight
Nautical Twilight
Astronomical Twilight
Moon
Length of Visible Light
Length of Day
Tomorrow will be .
, % of the Moon is Illuminated

Today's Extremes

State Highs State Lows

Community

WunderPhotos

Upload Photos

1,791,736 photos uploaded!

WunderBlogs® & News

Nearby

Air Quality

  Air Quality AQ Index Pollutant
Not available.

Snow Depth

Station Depth Elevation

Earthquake Activity

City Distance Mag. Time & Date
Minimum magnitude displayed is 2.5.

Coastal Water Temperatures

Place Temperature

Nearby Weather Stations